Pocatello Regional Airport
KPIH : now visible

Airfield :











YOU CAN JOIN US ON...

 
LOGIN :

Register | Disclaimer

   EN    FR    IT 

 









Legend :    VFR   Marginal VFR   IFR   Intensive IFR   Very Intensive IFR
Visi :
Ceiling :
>= 8 km
>= 3000ft
5 to 8 km
1000 to 3000 ft
1500m to 5 km
500 to 1000 ft
800 to 1500m
200 to 500 ft
< 800m
< 200 ft
Symbols :   Thunderstorms  Fog  Heavy snow  Heavy precipitations  Wind > 20 kt






- Airport Elevation : 4452 ft
- IATA code : PIH


KPIH - Pocatello Regional

CURRENT METAR :
  • 061753Z 28005KT 10SM FEW032 SCT080 BKN120 19/09 A2964 RMK AO2 RAE33 SLP987 P0001 60001 T01890094 10189 20139 58018

EXPIRED METARs :
  • 061653Z 20011KT 10SM -RA SCT080 BKN120 17/06 A2969 RMK AO2 SLP006 P0000 T01670061
  • 061553Z 23010KT 10SM -RA FEW080 BKN110 16/06 A2971 RMK AO2 SLP007 P0000 T01610061

TAF KPIH
Valid from the 06 at 18:00 until the 07 at 18:00 UTC


061722Z 0618/0718 19011KT P6SM BKN080
FM062100 24025G40KT 6SM -TSRA BLDU BKN070CB BKN100
FM070100 25018KT P6SM VCSH SCT020 BKN050
FM071100 23020KT P6SM VCSH BKN020 OVC040
FM071500 23025G35KT P6SM SCT030 BKN080
KZLC FIR / North America



MET'MAP, your aeronautical weather chart ! - Copyright ORBIFLY December 2007 - Disclaimer

ORBIFLY MET'MAP TEAM :

Programming & Development : Alexandra Zaïnal
Concept & original design : Baudouin d'Aumeries
Assistance for programming : Marc-Olivier Méhu
Technical & hardware support : Manuel Goepfert

Contact : metmap@orbifly.com




SOURCES & CREDITS :

   NOAA       Earth
Advisory